Time;durP1;ratioP1;P1;durP2;ratioP2;P2;SDS_P1;SDS_P2;PMS_P1;PMS_P2;Temp;Humidity;BMP_temperature;BMP_pressure;BME280_temperature;BME280_humidity;BME280_pressure;Samples;Min_cycle;Max_cycle;Signal;HPM_P1;HPM_P2
2023/04/21 00:00:08;;;;;;;310.87;127.97;;;;;;;13.49;85.64;99101.50;327967;30;800;-74
2023/04/21 00:00:19;;;;;;;308.67;124.00;;;;;;;13.49;85.43;99106.78;327364;30;2830;-74
2023/04/21 00:00:29;;;;;;;312.70;123.90;;;;;;;13.49;85.71;99104.13;325561;30;2672;-74
2023/04/21 00:00:40;;;;;;;310.93;122.97;;;;;;;13.48;85.36;99105.09;325798;30;3431;-74
2023/04/21 00:00:51;;;;;;;311.33;123.50;;;;;;;13.48;85.56;99105.09;322622;30;2765;-74
2023/04/21 00:01:02;;;;;;;307.48;123.38;;;;;;;13.45;85.66;99105.25;324053;30;1497;-74
2023/04/21 00:01:13;;;;;;;307.48;124.55;;;;;;;13.46;85.76;99106.09;322110;30;1983;-74
2023/04/21 00:01:23;;;;;;;308.85;124.63;;;;;;;13.47;85.81;99110.44;324246;30;1244;-74
2023/04/21 00:01:34;;;;;;;309.30;125.53;;;;;;;13.45;85.92;99105.25;323503;30;2604;-74
2023/04/21 00:01:45;;;;;;;310.00;125.80;;;;;;;13.47;85.76;99108.66;318991;30;2709;-74
2023/04/21 00:01:55;;;;;;;309.48;126.38;;;;;;;13.46;85.61;99106.94;319171;30;3086;-74
2023/04/21 00:02:06;;;;;;;308.27;126.07;;;;;;;13.46;85.69;99106.94;323168;30;860;-74
2023/04/21 00:02:16;;;;;;;310.10;127.97;;;;;;;13.46;85.72;99103.47;320101;30;3087;-74
2023/04/21 00:02:27;;;;;;;312.63;128.20;;;;;;;13.46;85.57;99101.69;320480;30;3384;-74
2023/04/21 00:02:38;;;;;;;313.53;129.30;;;;;;;13.45;85.78;99105.25;324255;30;1483;-74
2023/04/21 00:02:48;;;;;;;310.17;126.45;;;;;;;13.46;85.83;99108.75;322612;30;3745;-74
2023/04/21 00:02:59;;;;;;;308.93;126.53;;;;;;;13.46;85.69;99101.69;321328;30;2408;-74
2023/04/21 00:03:09;;;;;;;309.38;126.43;;;;;;;13.46;85.53;99103.47;321924;30;908;-74
2023/04/21 00:03:22;;;;;;;311.30;128.77;;;;;;;13.45;85.38;99099.16;317164;31;1373;-74
2023/04/21 00:03:36;;;;;;;309.23;126.22;;;;;;;13.44;85.64;99097.47;317750;30;3165;-74
2023/04/21 00:03:46;;;;;;;308.20;126.65;;;;;;;13.44;85.64;99102.72;318317;30;3575;-74
2023/04/21 00:03:58;;;;;;;308.33;127.13;;;;;;;13.42;85.94;99097.59;315253;31;4148;-74
2023/04/21 00:04:08;;;;;;;307.45;126.22;;;;;;;13.44;85.76;99100.94;313928;31;878;-74
2023/04/21 00:04:18;;;;;;;307.20;125.83;;;;;;;13.44;86.08;99098.31;314856;31;4087;-74
2023/04/21 00:04:29;;;;;;;307.70;127.03;;;;;;;13.44;85.93;99102.72;312473;31;4734;-74
2023/04/21 00:04:39;;;;;;;307.87;127.13;;;;;;;13.42;86.24;99094.97;312785;31;867;-74
2023/04/21 00:04:50;;;;;;;308.03;126.10;;;;;;;13.41;86.00;99101.16;309011;31;3087;-74
2023/04/21 00:05:01;;;;;;;309.08;125.90;;;;;;;13.43;85.97;99095.81;306040;32;4555;-74
2023/04/21 00:05:12;;;;;;;309.25;124.80;;;;;;;13.41;85.84;99098.53;306052;32;3123;-74
2023/04/21 00:05:23;;;;;;;308.27;124.38;;;;;;;13.41;86.55;99101.16;306541;32;1634;-74
2023/04/21 00:05:33;;;;;;;307.90;124.50;;;;;;;13.40;86.33;99096.84;307971;31;3659;-74
2023/04/21 00:05:44;;;;;;;308.85;124.90;;;;;;;13.40;86.50;99096.00;308362;31;4682;-74
2023/04/21 00:05:57;;;;;;;312.27;126.97;;;;;;;13.39;86.42;99094.31;310076;31;1480;-74
2023/04/21 00:06:11;;;;;;;312.95;127.78;;;;;;;13.39;86.45;99100.41;303865;32;1378;-74
2023/04/21 00:06:22;;;;;;;308.88;125.30;;;;;;;13.41;86.51;99093.28;301083;32;868;-74
2023/04/21 00:06:33;;;;;;;309.33;125.43;;;;;;;13.41;86.40;99098.53;299469;32;6349;-74
2023/04/21 00:06:44;;;;;;;310.90;124.68;;;;;;;13.38;86.35;99093.47;297121;32;6511;-74
2023/04/21 00:06:54;;;;;;;310.45;126.97;;;;;;;13.40;86.32;99099.47;297959;33;999;-74
2023/04/21 00:07:05;;;;;;;309.40;127.13;;;;;;;13.40;86.55;99101.25;294009;33;823;-74
2023/04/21 00:07:16;;;;;;;308.85;127.25;;;;;;;13.37;86.66;99096.19;292258;33;6099;-74
2023/04/21 00:07:26;;;;;;;310.13;126.97;;;;;;;13.40;86.50;99090.75;291690;33;4431;-74
2023/04/21 00:07:37;;;;;;;309.13;125.90;;;;;;;13.37;86.76;99099.66;294750;33;1516;-74
2023/04/21 00:07:47;;;;;;;310.17;127.28;;;;;;;13.36;86.47;99094.50;295316;33;5312;-74
2023/04/21 00:07:57;;;;;;;310.40;129.90;;;;;;;13.36;86.34;99095.34;294099;33;7488;-74
2023/04/21 00:08:08;;;;;;;309.80;131.23;;;;;;;13.37;86.45;99096.19;291661;33;1653;-74
2023/04/21 00:08:18;;;;;;;308.05;128.13;;;;;;;13.38;86.50;99097.88;289968;33;10745;-74
2023/04/21 00:08:29;;;;;;;308.57;127.90;;;;;;;13.37;86.34;99099.66;288013;34;10608;-74
2023/04/21 00:08:39;;;;;;;310.98;127.25;;;;;;;13.37;86.28;99096.19;287283;34;809;-74
2023/04/21 00:08:49;;;;;;;312.47;128.33;;;;;;;13.37;86.32;99090.94;285860;34;8452;-74
2023/04/21 00:09:00;;;;;;;312.38;126.15;;;;;;;13.38;86.30;99097.88;285951;34;9338;-74
2023/04/21 00:09:10;;;;;;;311.23;125.93;;;;;;;13.37;86.38;99091.78;286793;34;8690;-74
2023/04/21 00:09:21;;;;;;;309.60;124.83;;;;;;;13.38;86.21;99098.72;287098;34;831;-74
2023/04/21 00:09:31;;;;;;;308.90;124.95;;;;;;;13.39;86.20;99097.78;282936;34;7734;-74
2023/04/21 00:09:42;;;;;;;309.80;125.93;;;;;;;13.37;86.38;99094.41;282585;34;5489;-74
2023/04/21 00:09:52;;;;;;;309.77;127.78;;;;;;;13.39;86.33;99095.16;281446;34;3868;-74
2023/04/21 00:10:05;;;;;;;308.17;127.60;;;;;;;13.38;86.32;99090.84;282137;34;7141;-74
2023/04/21 00:10:15;;;;;;;308.88;126.75;;;;;;;13.36;86.54;99092.72;279439;35;9800;-74
2023/04/21 00:10:26;;;;;;;308.65;125.63;;;;;;;13.37;86.47;99097.03;276769;35;14439;-74
2023/04/21 00:10:36;;;;;;;311.53;127.43;;;;;;;13.37;86.52;99097.03;277170;35;717;-74
2023/04/21 00:12:18;;;;;;;303.00;118.36;;;;;;;13.34;87.41;99106.88;2500083;27;20712;-73
2023/04/21 00:12:29;;;;;;;307.60;122.90;;;;;;;13.30;87.27;99093.91;352874;28;1380;-73
2023/04/21 00:12:40;;;;;;;309.83;125.00;;;;;;;13.30;87.41;99096.56;348634;28;1259;-73
2023/04/21 00:12:50;;;;;;;307.38;123.32;;;;;;;13.32;87.27;99097.31;348744;28;959;-73
2023/04/21 00:13:00;;;;;;;307.17;123.17;;;;;;;13.30;87.30;99093.91;348821;28;824;-73
2023/04/21 00:13:11;;;;;;;307.13;123.30;;;;;;;13.32;87.36;99099.94;350178;28;1023;-73
2023/04/21 00:13:22;;;;;;;307.83;123.65;;;;;;;13.30;87.38;99095.69;350064;28;1227;-75
2023/04/21 00:13:34;;;;;;;307.42;124.95;;;;;;;13.29;87.45;99092.22;348046;28;1630;-73
2023/04/21 00:13:44;;;;;;;307.40;124.18;;;;;;;13.29;87.32;99091.38;347174;28;1587;-73
2023/04/21 00:13:55;;;;;;;308.00;125.57;;;;;;;13.31;87.33;99095.59;349259;28;871;-74
2023/04/21 00:14:05;;;;;;;308.15;125.55;;;;;;;13.29;87.20;99097.47;351650;28;808;-74
2023/04/21 00:14:16;;;;;;;308.67;125.90;;;;;;;13.28;87.17;99090.53;349817;28;1215;-73
2023/04/21 00:14:27;;;;;;;308.10;125.00;;;;;;;13.30;87.37;99095.69;349993;28;1339;-73
2023/04/21 00:14:38;;;;;;;307.48;123.90;;;;;;;13.30;87.47;99101.81;349950;28;869;-73
2023/04/21 00:14:49;;;;;;;307.50;124.80;;;;;;;13.29;87.28;99094.84;347334;28;1818;-74
2023/04/21 00:14:59;;;;;;;308.43;125.27;;;;;;;13.28;87.40;99093.16;348687;28;805;-73
2023/04/21 00:15:11;;;;;;;308.92;126.75;;;;;;;13.28;87.53;99092.31;349995;28;1351;-74
2023/04/21 00:15:21;;;;;;;311.02;125.60;;;;;;;13.29;87.47;99099.25;350225;28;958;-74
2023/04/21 00:15:32;;;;;;;313.07;124.17;;;;;;;13.30;87.45;99100.97;350424;28;1526;-73
2023/04/21 00:15:42;;;;;;;312.87;123.57;;;;;;;13.28;87.39;99089.69;350096;28;929;-73
2023/04/21 00:15:53;;;;;;;311.83;124.07;;;;;;;13.28;87.56;99092.31;349783;28;907;-73
2023/04/21 00:16:03;;;;;;;309.13;124.47;;;;;;;13.28;86.57;99100.22;348578;28;1506;-73
2023/04/21 00:16:14;;;;;;;308.48;124.43;;;;;;;13.28;87.48;99097.56;343504;28;1144;-73
2023/04/21 00:16:24;;;;;;;307.83;123.57;;;;;;;13.26;87.75;99092.41;344413;28;839;-73
2023/04/21 00:16:34;;;;;;;307.65;122.38;;;;;;;13.28;87.35;99092.31;346064;28;1289;-73
2023/04/21 00:16:45;;;;;;;308.37;122.87;;;;;;;13.27;87.38;99090.63;344557;28;963;-73
2023/04/21 00:16:55;;;;;;;309.90;125.13;;;;;;;13.26;87.62;99089.78;344609;28;999;-73
2023/04/21 00:17:06;;;;;;;310.37;126.97;;;;;;;13.27;87.58;99095.88;341946;28;770;-73
2023/04/21 00:17:16;;;;;;;309.08;126.78;;;;;;;13.27;87.57;99095.88;342035;28;789;-73
2023/04/21 00:17:26;;;;;;;308.93;126.70;;;;;;;13.26;87.66;99094.19;341853;28;1273;-73
2023/04/21 00:17:38;;;;;;;308.40;126.22;;;;;;;13.25;87.69;99088.09;341434;28;1597;-73
2023/04/21 00:17:48;;;;;;;308.45;127.15;;;;;;;13.27;87.93;99095.88;340575;29;933;-73
2023/04/21 00:17:58;;;;;;;309.47;128.10;;;;;;;13.26;87.88;99094.19;343478;28;813;-73
2023/04/21 00:18:09;;;;;;;310.17;127.32;;;;;;;13.26;87.62;99096.81;344399;28;1207;-73
2023/04/21 00:18:19;;;;;;;308.33;125.83;;;;;;;13.26;87.79;99095.03;341887;28;1193;-73
2023/04/21 00:18:30;;;;;;;308.77;125.23;;;;;;;13.27;87.74;99101.13;342634;28;1188;-73
2023/04/21 00:18:40;;;;;;;308.67;125.85;;;;;;;13.24;87.81;99091.66;341011;28;1239;-73
2023/04/21 00:18:51;;;;;;;309.25;126.75;;;;;;;13.26;87.63;99099.44;342671;28;3250;-73
2023/04/21 00:19:05;;;;;;;307.50;126.33;;;;;;;13.24;87.78;99096.91;341590;28;2244;-73
2023/04/21 00:19:16;;;;;;;308.98;124.53;;;;;;;13.26;87.62;99094.19;344430;28;1074;-73
2023/04/21 00:19:28;;;;;;;308.87;124.00;;;;;;;13.26;87.72;99094.19;343277;28;823;-74
2023/04/21 00:19:38;;;;;;;311.82;124.02;;;;;;;13.26;87.78;99099.44;344645;28;1542;-73
2023/04/21 00:19:49;;;;;;;310.50;121.40;;;;;;;13.24;87.84;99093.44;344657;28;829;-73
2023/04/21 00:19:59;;;;;;;310.77;119.83;;;;;;;13.25;88.17;99098.59;344221;28;1261;-73
2023/04/21 00:20:10;;;;;;;310.05;121.18;;;;;;;13.24;88.00;99096.06;340115;28;1596;-73
2023/04/21 00:20:22;;;;;;;309.83;123.25;;;;;;;13.25;88.24;99097.75;341901;28;1273;-73
2023/04/21 00:20:32;;;;;;;308.90;125.38;;;;;;;13.26;88.06;99104.72;337941;29;1369;-73
2023/04/21 00:20:43;;;;;;;306.02;124.15;;;;;;;13.25;88.14;99100.38;338601;29;1699;-73
2023/04/21 00:20:54;;;;;;;306.40;123.95;;;;;;;13.24;87.71;99096.06;336077;29;1334;-73
2023/04/21 00:21:05;;;;;;;306.45;123.38;;;;;;;13.23;87.96;99089.97;331525;29;1228;-73
2023/04/21 00:21:16;;;;;;;306.13;122.00;;;;;;;13.24;88.01;99107.44;336251;29;1969;-73
2023/04/21 00:21:27;;;;;;;306.95;122.00;;;;;;;13.23;88.15;99094.38;337149;29;1566;-73
2023/04/21 00:21:37;;;;;;;308.52;122.55;;;;;;;13.23;88.17;99095.22;336290;29;1533;-73
2023/04/21 00:21:48;;;;;;;308.70;123.47;;;;;;;13.22;88.16;99093.53;334180;29;962;-73
2023/04/21 00:22:00;;;;;;;309.55;125.75;;;;;;;13.22;88.31;99092.69;332258;29;1114;-73
2023/04/21 00:22:13;;;;;;;308.92;125.30;;;;;;;13.21;88.93;99098.88;333910;29;1528;-73
2023/04/21 00:22:24;;;;;;;309.77;126.53;;;;;;;13.19;88.46;99087.63;335957;29;1859;-73
2023/04/21 00:22:34;;;;;;;308.90;125.90;;;;;;;13.18;88.61;99099.06;334152;29;958;-73
2023/04/21 00:22:44;;;;;;;308.97;126.07;;;;;;;13.19;88.74;99093.72;334677;29;2301;-73
2023/04/21 00:22:55;;;;;;;307.40;124.88;;;;;;;13.20;88.77;99102.44;330413;29;1543;-73
2023/04/21 00:23:05;;;;;;;306.37;123.50;;;;;;;13.21;88.95;99091.00;330470;29;749;-73
2023/04/21 00:23:16;;;;;;;305.95;122.88;;;;;;;13.18;88.74;99091.19;330001;29;1676;-72
2023/04/21 00:23:26;;;;;;;306.83;122.70;;;;;;;13.19;89.11;99104.22;328364;30;1321;-73
2023/04/21 00:23:37;;;;;;;308.65;122.95;;;;;;;13.20;89.15;99100.66;327274;30;1914;-73
2023/04/21 00:23:48;;;;;;;308.50;121.47;;;;;;;13.19;88.90;99092.88;330040;29;1606;-73
2023/04/21 00:23:59;;;;;;;308.83;121.32;;;;;;;13.20;89.11;99094.56;333650;29;1174;-73
2023/04/21 00:24:09;;;;;;;309.87;123.57;;;;;;;13.18;89.00;99101.69;333437;29;1759;-74
2023/04/21 00:24:20;;;;;;;311.88;127.88;;;;;;;13.20;88.87;99097.19;327975;30;1247;-73
2023/04/21 00:24:30;;;;;;;311.27;129.10;;;;;;;13.19;88.93;99100.75;326096;30;2138;-72
2023/04/21 00:24:41;;;;;;;311.05;127.93;;;;;;;13.17;88.87;99090.34;322984;30;2673;-72
2023/04/21 00:24:51;;;;;;;309.47;126.17;;;;;;;13.19;89.15;99103.38;324138;30;896;-73
2023/04/21 00:25:02;;;;;;;309.55;124.15;;;;;;;13.19;89.27;99103.38;318332;31;1365;-73
2023/04/21 00:25:13;;;;;;;309.13;123.47;;;;;;;13.19;89.29;99092.88;315259;31;2534;-73
2023/04/21 00:25:24;;;;;;;307.08;121.13;;;;;;;13.19;88.85;99098.13;313632;31;2290;-73
2023/04/21 00:25:34;;;;;;;309.40;123.03;;;;;;;13.18;89.35;99102.53;312571;31;1543;-73
2023/04/21 00:25:45;;;;;;;312.00;124.90;;;;;;;13.19;89.14;99106.00;314765;31;1450;-73
2023/04/21 00:25:55;;;;;;;312.70;125.10;;;;;;;13.15;89.48;99101.84;314983;31;1240;-73
2023/04/21 00:26:06;;;;;;;309.02;123.18;;;;;;;13.13;89.82;99101.09;318321;31;1029;-73
2023/04/21 00:26:16;;;;;;;306.47;122.63;;;;;;;13.14;89.57;99100.16;318103;31;2016;-73
2023/04/21 00:26:26;;;;;;;308.50;123.68;;;;;;;13.13;89.62;99098.44;317900;30;2528;-73
2023/04/21 00:26:37;;;;;;;309.37;123.73;;;;;;;13.10;89.76;99094.22;317694;31;2768;-73
2023/04/21 00:26:47;;;;;;;310.83;124.63;;;;;;;13.10;89.74;99093.38;312723;31;903;-72
2023/04/21 00:26:57;;;;;;;311.30;126.70;;;;;;;13.12;89.95;99099.38;310289;31;3421;-72
2023/04/21 00:27:08;;;;;;;310.50;125.95;;;;;;;13.12;89.68;99096.75;309402;31;3475;-72
2023/04/21 00:27:18;;;;;;;311.93;124.43;;;;;;;13.11;89.63;99100.31;311640;31;894;-72
2023/04/21 00:27:29;;;;;;;312.63;125.28;;;;;;;13.12;89.77;99102.00;308144;31;2988;-72
2023/04/21 00:27:39;;;;;;;316.03;127.47;;;;;;;13.13;89.69;99103.72;309339;31;2770;-72
2023/04/21 00:27:50;;;;;;;312.85;127.90;;;;;;;13.12;89.68;99099.38;316135;31;964;-72
2023/04/21 00:28:00;;;;;;;313.97;128.03;;;;;;;13.12;89.92;99096.75;309746;31;3457;-72
2023/04/21 00:28:11;;;;;;;311.70;126.95;;;;;;;13.12;89.38;99097.59;312117;31;2339;-72
2023/04/21 00:28:22;;;;;;;311.67;124.73;;;;;;;13.14;89.59;99100.16;311442;31;2386;-72
2023/04/21 00:28:33;;;;;;;309.67;121.82;;;;;;;13.13;89.70;99094.03;308409;32;904;-73
2023/04/21 00:28:43;;;;;;;310.23;121.80;;;;;;;13.14;89.43;99098.38;308902;31;4312;-73
2023/04/21 00:28:54;;;;;;;310.85;124.55;;;;;;;13.13;89.51;99098.44;306019;32;4070;-73
2023/04/21 00:29:04;;;;;;;311.63;126.17;;;;;;;13.10;89.58;99094.22;306193;32;852;-73
2023/04/21 00:29:14;;;;;;;311.05;126.65;;;;;;;13.12;89.67;99096.75;307836;31;4635;-74
2023/04/21 00:29:25;;;;;;;312.83;126.73;;;;;;;13.11;89.35;99095.06;306424;32;4801;-73
2023/04/21 00:29:35;;;;;;;312.95;127.25;;;;;;;13.10;89.45;99093.38;303310;32;1584;-73
2023/04/21 00:29:46;;;;;;;314.03;128.47;;;;;;;13.10;89.57;99098.63;306016;32;4783;-73
2023/04/21 00:29:56;;;;;;;310.13;127.17;;;;;;;13.09;89.54;99094.31;303519;32;3830;-74
2023/04/21 00:30:07;;;;;;;308.07;125.00;;;;;;;13.09;89.58;99094.31;302333;32;2720;-73
2023/04/21 00:30:17;;;;;;;307.25;123.25;;;;;;;13.08;89.41;99095.25;301897;32;901;-73
2023/04/21 00:30:28;;;;;;;309.47;122.60;;;;;;;13.08;89.49;99096.09;300253;32;3621;-73
2023/04/21 00:30:38;;;;;;;309.65;122.93;;;;;;;13.05;89.43;99092.81;300798;32;4207;-73
2023/04/21 00:30:48;;;;;;;312.50;124.70;;;;;;;13.03;90.07;99087.63;302033;32;1129;-73
2023/04/21 00:30:59;;;;;;;311.77;125.20;;;;;;;13.04;90.10;99094.59;301809;32;5194;-73
2023/04/21 00:31:09;;;;;;;312.13;125.97;;;;;;;13.02;89.78;99095.59;300483;32;5732;-74
2023/04/21 00:31:20;;;;;;;307.37;124.93;;;;;;;13.02;90.11;99095.59;300058;32;755;-74
2023/04/21 00:31:31;;;;;;;308.45;125.47;;;;;;;13.00;89.91;99093.91;298933;32;7289;-72
2023/04/21 00:31:41;;;;;;;312.65;126.18;;;;;;;13.01;89.99;99100.03;296668;33;6383;-72
2023/04/21 00:31:52;;;;;;;314.73;128.00;;;;;;;13.01;89.87;99094.75;294753;33;6353;-72
2023/04/21 00:32:05;;;;;;;313.75;126.72;;;;;;;13.02;89.97;99095.59;295886;33;882;-72
2023/04/21 00:32:16;;;;;;;310.83;126.35;;;;;;;13.03;89.86;99099.94;295746;33;5480;-72
2023/04/21 00:32:26;;;;;;;312.47;127.47;;;;;;;13.02;89.80;99090.34;294336;33;3954;-72
2023/04/21 00:32:37;;;;;;;312.55;127.22;;;;;;;12.99;89.93;99087.00;291896;33;5102;-72
2023/04/21 00:32:47;;;;;;;311.80;127.33;;;;;;;13.03;89.98;99095.53;293906;33;1422;-72
2023/04/21 00:32:57;;;;;;;310.27;127.93;;;;;;;13.03;89.86;99103.41;293112;33;6407;-72
2023/04/21 00:33:08;;;;;;;311.67;129.33;;;;;;;13.02;89.57;99090.34;290776;33;7620;-72
2023/04/21 00:33:18;;;;;;;312.30;127.63;;;;;;;13.00;89.69;99099.19;288074;34;1251;-72
2023/04/21 00:33:29;;;;;;;312.40;126.87;;;;;;;13.02;89.64;99093.84;288634;33;8127;-72
2023/04/21 00:33:39;;;;;;;310.27;125.00;;;;;;;13.02;89.59;99090.34;284572;34;9490;-74
2023/04/21 00:33:50;;;;;;;309.60;124.73;;;;;;;13.04;89.49;99099.00;284776;34;1539;-74
2023/04/21 00:34:00;;;;;;;308.63;123.87;;;;;;;13.03;89.45;99092.06;280091;34;9381;-74
2023/04/21 00:35:43;;;;;;;299.82;115.04;;;;;;;13.03;89.33;99097.31;2495984;27;20479;-74
2023/04/21 00:35:53;;;;;;;304.57;120.70;;;;;;;13.03;89.27;99092.06;352817;28;975;-74
2023/04/21 00:36:04;;;;;;;304.88;120.05;;;;;;;13.00;89.17;99093.91;351476;28;1314;-74
2023/04/21 00:36:14;;;;;;;304.93;120.60;;;;;;;13.03;89.25;99098.16;348738;28;868;-74
2023/04/21 00:36:27;;;;;;;303.70;119.30;;;;;;;13.00;89.22;99093.91;347411;28;1134;-74
2023/04/21 00:36:37;;;;;;;304.20;120.95;;;;;;;13.03;89.22;99099.94;348793;28;837;-74
2023/04/21 00:36:47;;;;;;;305.77;120.82;;;;;;;13.02;89.63;99087.72;350170;28;888;-74
2023/04/21 00:36:58;;;;;;;307.20;123.80;;;;;;;13.02;89.28;99101.72;348950;28;3442;-74
2023/04/21 00:37:08;;;;;;;308.38;124.20;;;;;;;13.02;89.41;99095.59;348287;28;2655;-74
2023/04/21 00:37:19;;;;;;;311.17;126.33;;;;;;;13.00;89.42;99093.91;350442;28;1282;-74
2023/04/21 00:37:29;;;;;;;310.85;124.80;;;;;;;12.99;89.63;99097.50;348262;28;1541;-74
2023/04/21 00:37:40;;;;;;;309.93;126.40;;;;;;;13.00;89.49;99100.97;347822;28;1529;-75
2023/04/21 00:37:50;;;;;;;307.77;124.07;;;;;;;12.97;89.68;99094.13;348755;28;939;-74
2023/04/21 00:38:01;;;;;;;309.27;124.47;;;;;;;12.99;89.61;99097.50;348561;28;1299;-74
2023/04/21 00:38:11;;;;;;;309.58;123.97;;;;;;;12.98;89.55;99093.19;348678;28;849;-74
2023/04/21 00:38:22;;;;;;;309.60;124.83;;;;;;;12.98;89.82;99098.44;348721;28;931;-74
2023/04/21 00:38:32;;;;;;;308.63;122.95;;;;;;;12.98;89.84;99098.44;346079;28;932;-74
2023/04/21 00:38:42;;;;;;;308.50;123.57;;;;;;;12.95;89.91;99096.00;347383;28;1539;-74
2023/04/21 00:38:53;;;;;;;307.95;122.47;;;;;;;12.93;89.86;99097.88;345905;28;1300;-74
2023/04/21 00:39:03;;;;;;;307.83;121.77;;;;;;;12.91;89.52;99097.13;348681;28;943;-74
2023/04/21 00:39:14;;;;;;;306.83;119.03;;;;;;;12.93;89.68;99103.13;350009;28;1429;-74
2023/04/21 00:39:24;;;;;;;305.90;119.77;;;;;;;12.90;89.83;99092.78;347271;28;798;-74
2023/04/21 00:39:35;;;;;;;307.42;122.20;;;;;;;12.89;89.62;99092.88;349678;28;1702;-74
2023/04/21 00:39:45;;;;;;;307.40;123.83;;;;;;;12.91;89.48;99093.66;349990;28;1412;-74
2023/04/21 00:39:56;;;;;;;308.43;124.33;;;;;;;12.91;89.07;99094.50;347345;28;884;-74
2023/04/21 00:40:07;;;;;;;309.73;124.53;;;;;;;12.91;89.41;99094.50;345150;28;1240;-74
2023/04/21 00:40:17;;;;;;;311.10;125.72;;;;;;;12.89;89.20;99101.63;345827;28;1299;-74
2023/04/21 00:40:28;;;;;;;309.87;123.73;;;;;;;12.89;89.24;99098.97;347426;28;907;-74
2023/04/21 00:40:38;;;;;;;308.37;122.10;;;;;;;12.88;88.95;99097.28;342964;28;1516;-74
2023/04/21 00:40:49;;;;;;;311.30;128.15;;;;;;;12.84;88.87;99092.31;344207;28;1379;-74
2023/04/21 00:40:59;;;;;;;311.47;127.27;;;;;;;12.80;89.22;99102.16;347362;28;844;-74
2023/04/21 00:41:09;;;;;;;310.27;125.93;;;;;;;12.77;89.06;99097.06;346975;28;1157;-74
2023/04/21 00:41:20;;;;;;;307.57;119.23;;;;;;;12.78;89.17;99097.91;346210;28;877;-74
2023/04/21 00:41:31;;;;;;;308.83;121.85;;;;;;;12.71;89.26;99097.41;346225;28;1680;-74
2023/04/21 00:41:47;;;;;;;309.43;123.17;;;;;;;12.68;89.43;99097.59;343851;28;1573;-74
2023/04/21 00:42:03;;;;;;;306.95;122.47;;;;;;;12.68;89.62;99094.13;342007;28;853;-74
2023/04/21 00:42:18;;;;;;;306.08;121.65;;;;;;;12.68;89.88;99094.13;339257;29;1405;-74
2023/04/21 00:42:28;;;;;;;307.38;122.10;;;;;;;12.69;89.74;99094.03;336630;29;1451;-74
2023/04/21 00:42:38;;;;;;;307.30;122.07;;;;;;;12.69;89.65;99094.03;337850;29;1234;-74
2023/04/21 00:42:49;;;;;;;306.80;122.80;;;;;;;12.68;89.48;99087.09;335449;29;1243;-74
2023/04/21 00:42:59;;;;;;;306.23;123.30;;;;;;;12.71;89.63;99091.31;336636;29;1231;-74
2023/04/21 00:43:10;;;;;;;305.40;123.67;;;;;;;12.70;89.66;99090.47;338980;29;1287;-74
2023/04/21 00:43:20;;;;;;;305.77;123.03;;;;;;;12.71;89.50;99083.44;337805;29;1378;-74
2023/04/21 00:43:31;;;;;;;305.57;121.87;;;;;;;12.72;89.34;99087.75;334400;29;1447;-74
2023/04/21 00:44:00;;;;;;;305.88;120.18;;;;;;;12.69;89.90;99091.41;337438;29;1459;-74
2023/04/21 00:44:10;;;;;;;304.75;116.97;;;;;;;12.63;89.91;99084.72;337504;29;1443;-74
2023/04/21 00:44:21;;;;;;;306.45;118.50;;;;;;;12.64;89.46;99093.44;338882;29;1723;-74
2023/04/21 00:44:31;;;;;;;307.60;120.90;;;;;;;12.63;89.64;99089.97;340391;29;1923;-74
2023/04/21 00:44:42;;;;;;;308.05;122.55;;;;;;;12.63;89.62;99089.13;335271;29;1470;-74
2023/04/21 00:44:52;;;;;;;308.27;121.77;;;;;;;12.66;89.75;99094.22;336748;29;900;-74
2023/04/21 00:45:03;;;;;;;307.65;122.57;;;;;;;12.65;89.80;99082.88;337893;29;1458;-76
2023/04/21 00:45:14;;;;;;;307.48;122.43;;;;;;;12.65;89.85;99085.50;340561;29;2116;-74
2023/04/21 00:45:24;;;;;;;308.60;123.18;;;;;;;12.68;89.65;99087.09;336063;29;958;-74
2023/04/21 00:45:35;;;;;;;309.13;122.10;;;;;;;12.69;89.42;99091.41;335171;29;1595;-74
2023/04/21 00:45:48;;;;;;;309.13;122.80;;;;;;;12.70;89.53;99090.47;332826;29;831;-74
2023/04/21 00:45:58;;;;;;;310.63;124.63;;;;;;;12.73;89.55;99090.31;329789;29;3756;-74
2023/04/21 00:46:09;;;;;;;309.63;124.83;;;;;;;12.69;89.40;99083.53;336789;29;2750;-74
2023/04/21 00:46:20;;;;;;;309.50;123.75;;;;;;;12.70;89.60;99094.88;341613;28;2032;-74
2023/04/21 00:46:30;;;;;;;308.37;123.37;;;;;;;12.71;89.65;99091.31;339332;29;822;-74
2023/04/21 00:46:42;;;;;;;310.83;122.90;;;;;;;12.73;89.65;99087.69;336406;29;1980;-74
2023/04/21 00:46:52;;;;;;;309.83;122.63;;;;;;;12.74;89.41;99089.38;337893;29;1705;-74
2023/04/21 00:47:02;;;;;;;308.13;123.17;;;;;;;12.74;89.32;99086.75;336439;29;1190;-74
2023/04/21 00:47:13;;;;;;;306.07;122.20;;;;;;;12.75;89.43;99093.69;334148;29;1345;-74
2023/04/21 00:47:24;;;;;;;309.43;122.93;;;;;;;12.76;89.13;99089.28;334744;29;1350;-74
2023/04/21 00:47:34;;;;;;;311.75;123.65;;;;;;;12.76;89.17;99095.38;335895;29;1787;-74
2023/04/21 00:47:45;;;;;;;313.97;126.03;;;;;;;12.77;89.10;99091.81;333079;29;1192;-74
2023/04/21 00:47:55;;;;;;;309.60;123.57;;;;;;;12.77;89.33;99089.19;332321;29;2513;-74
2023/04/21 00:48:05;;;;;;;309.27;123.07;;;;;;;12.78;89.22;99090.88;328339;29;2236;-74
2023/04/21 00:48:16;;;;;;;308.52;121.25;;;;;;;12.77;88.94;99085.72;324326;30;881;-74
2023/04/21 00:48:26;;;;;;;307.87;119.30;;;;;;;12.76;89.45;99092.75;324807;30;2402;-74
2023/04/21 00:48:37;;;;;;;305.88;117.50;;;;;;;12.71;89.75;99092.16;326202;30;2511;-74
2023/04/21 00:48:47;;;;;;;305.77;118.33;;;;;;;12.72;89.96;99087.75;325176;30;2770;-74
2023/04/21 00:48:58;;;;;;;306.30;119.77;;;;;;;12.71;89.77;99088.69;324271;30;1168;-74
2023/04/21 00:49:08;;;;;;;306.58;119.88;;;;;;;12.72;89.72;99088.59;324339;30;1841;-74
2023/04/21 00:49:18;;;;;;;308.52;119.97;;;;;;;12.70;89.83;99079.97;324542;30;1363;-74
2023/04/21 00:49:29;;;;;;;310.47;122.43;;;;;;;12.69;89.54;99078.28;323727;30;1580;-74
2023/04/21 00:49:39;;;;;;;311.42;124.03;;;;;;;12.71;89.75;99086.06;321294;30;2054;-74
2023/04/21 00:49:50;;;;;;;310.83;124.40;;;;;;;12.73;89.65;99086.81;321003;30;2314;-74
2023/04/21 00:50:01;;;;;;;310.23;123.90;;;;;;;12.70;89.85;99090.47;320661;30;1248;-74
2023/04/21 00:50:11;;;;;;;309.88;123.80;;;;;;;12.70;89.70;99079.97;317821;30;3013;-74
2023/04/21 00:50:21;;;;;;;309.80;124.15;;;;;;;12.72;89.72;99083.34;320696;30;3262;-74
2023/04/21 00:50:32;;;;;;;309.50;123.70;;;;;;;12.75;89.79;99087.59;318789;30;3710;-74
2023/04/21 00:50:42;;;;;;;308.67;123.32;;;;;;;12.73;89.65;99085.06;318421;31;953;-74
2023/04/21 00:50:53;;;;;;;308.53;123.60;;;;;;;12.73;89.79;99084.19;318464;30;3570;-74
2023/04/21 00:51:03;;;;;;;308.73;124.70;;;;;;;12.75;89.74;99085.81;315819;31;3186;-74
2023/04/21 00:51:14;;;;;;;308.27;124.70;;;;;;;12.72;89.74;99082.50;316047;31;815;-74
2023/04/21 00:51:25;;;;;;;308.65;124.90;;;;;;;12.72;89.59;99082.50;314880;31;2448;-74
2023/04/21 00:51:36;;;;;;;308.55;124.30;;;;;;;12.72;89.69;99080.72;311717;31;2259;-74
2023/04/21 00:51:46;;;;;;;309.52;124.38;;;;;;;12.73;89.85;99082.41;312714;31;1332;-74
2023/04/21 00:51:57;;;;;;;311.93;125.43;;;;;;;12.73;89.69;99084.19;311091;31;1540;-74
2023/04/21 00:52:07;;;;;;;311.73;124.72;;;;;;;12.72;90.12;99087.75;311511;31;3848;-74
2023/04/21 00:52:18;;;;;;;311.50;124.97;;;;;;;12.72;89.81;99085.13;308597;31;4405;-74
2023/04/21 00:52:28;;;;;;;310.43;123.43;;;;;;;12.70;89.93;99082.59;307327;32;860;-74
2023/04/21 00:52:39;;;;;;;311.95;123.93;;;;;;;12.71;89.84;99079.03;305557;31;4550;-74
2023/04/21 00:52:50;;;;;;;308.25;119.95;;;;;;;12.72;89.79;99082.50;305316;32;4329;-74